sensor_id;sensor_type;location;lat;lon;timestamp;temperature;humidity
10572;DHT22;5334;48.928;12.704;2022-09-09T00:04:41;16.00;99.90
10572;DHT22;5334;48.928;12.704;2022-09-09T00:18:31;15.90;99.90
10572;DHT22;5334;48.928;12.704;2022-09-09T00:21:07;15.80;99.90
10572;DHT22;5334;48.928;12.704;2022-09-09T00:23:44;15.70;99.90
10572;DHT22;5334;48.928;12.704;2022-09-09T00:29:28;15.60;99.90
10572;DHT22;5334;48.928;12.704;2022-09-09T00:32:05;15.50;99.90
10572;DHT22;5334;48.928;12.704;2022-09-09T00:37:02;15.50;99.90
10572;DHT22;5334;48.928;12.704;2022-09-09T00:39:47;15.50;99.90
10572;DHT22;5334;48.928;12.704;2022-09-09T00:42:18;15.50;99.90
10572;DHT22;5334;48.928;12.704;2022-09-09T00:47:53;15.40;99.90
10572;DHT22;5334;48.928;12.704;2022-09-09T00:52:58;15.40;99.90
10572;DHT22;5334;48.928;12.704;2022-09-09T00:58:07;15.40;99.90
10572;DHT22;5334;48.928;12.704;2022-09-09T01:03:53;15.30;99.90
10572;DHT22;5334;48.928;12.704;2022-09-09T01:06:34;15.30;99.90
10572;DHT22;5334;48.928;12.704;2022-09-09T01:16:47;15.20;99.90
10572;DHT22;5334;48.928;12.704;2022-09-09T01:19:24;15.20;99.90
10572;DHT22;5334;48.928;12.704;2022-09-09T01:27:03;15.10;99.90
10572;DHT22;5334;48.928;12.704;2022-09-09T01:31:58;15.10;99.90
10572;DHT22;5334;48.928;12.704;2022-09-09T01:34:30;15.10;99.90
10572;DHT22;5334;48.928;12.704;2022-09-09T01:37:11;15.10;99.90
10572;DHT22;5334;48.928;12.704;2022-09-09T01:39:38;15.10;99.90
10572;DHT22;5334;48.928;12.704;2022-09-09T01:42:09;15.00;99.90
10572;DHT22;5334;48.928;12.704;2022-09-09T01:44:36;15.00;99.90
10572;DHT22;5334;48.928;12.704;2022-09-09T01:47:02;15.00;99.90
10572;DHT22;5334;48.928;12.704;2022-09-09T01:49:28;15.00;99.90
10572;DHT22;5334;48.928;12.704;2022-09-09T01:51:55;15.00;99.90
10572;DHT22;5334;48.928;12.704;2022-09-09T01:54:24;15.00;99.90
10572;DHT22;5334;48.928;12.704;2022-09-09T02:02:08;14.90;99.90
10572;DHT22;5334;48.928;12.704;2022-09-09T02:04:41;15.00;99.90
10572;DHT22;5334;48.928;12.704;2022-09-09T02:07:44;14.90;99.90
10572;DHT22;5334;48.928;12.704;2022-09-09T02:10:22;14.90;99.90
10572;DHT22;5334;48.928;12.704;2022-09-09T02:13:10;14.90;99.90
10572;DHT22;5334;48.928;12.704;2022-09-09T02:18:14;14.90;99.90
10572;DHT22;5334;48.928;12.704;2022-09-09T02:20:44;14.80;99.90
10572;DHT22;5334;48.928;12.704;2022-09-09T02:23:11;14.80;99.90
10572;DHT22;5334;48.928;12.704;2022-09-09T02:25:40;14.70;99.90
10572;DHT22;5334;48.928;12.704;2022-09-09T02:30:35;14.60;99.90
10572;DHT22;5334;48.928;12.704;2022-09-09T02:33:04;14.60;99.90
10572;DHT22;5334;48.928;12.704;2022-09-09T02:35:32;14.60;99.90
10572;DHT22;5334;48.928;12.704;2022-09-09T02:38:04;14.50;99.90
10572;DHT22;5334;48.928;12.704;2022-09-09T02:40:32;14.60;99.90
10572;DHT22;5334;48.928;12.704;2022-09-09T02:42:57;14.60;99.90
10572;DHT22;5334;48.928;12.704;2022-09-09T02:45:29;14.50;99.90
10572;DHT22;5334;48.928;12.704;2022-09-09T02:50:33;14.50;99.90
10572;DHT22;5334;48.928;12.704;2022-09-09T02:53:14;14.50;99.90
10572;DHT22;5334;48.928;12.704;2022-09-09T02:55:57;14.50;99.90
10572;DHT22;5334;48.928;12.704;2022-09-09T02:58:24;14.50;99.90
10572;DHT22;5334;48.928;12.704;2022-09-09T03:00:51;14.40;99.90
10572;DHT22;5334;48.928;12.704;2022-09-09T03:03:18;14.40;99.90
10572;DHT22;5334;48.928;12.704;2022-09-09T03:05:45;14.40;99.90
10572;DHT22;5334;48.928;12.704;2022-09-09T03:08:11;14.40;99.90
10572;DHT22;5334;48.928;12.704;2022-09-09T03:10:37;14.40;99.90
10572;DHT22;5334;48.928;12.704;2022-09-09T03:13:03;14.40;99.90
10572;DHT22;5334;48.928;12.704;2022-09-09T03:15:32;14.40;99.90
10572;DHT22;5334;48.928;12.704;2022-09-09T03:17:58;14.40;99.90
10572;DHT22;5334;48.928;12.704;2022-09-09T03:20:26;14.40;99.90
10572;DHT22;5334;48.928;12.704;2022-09-09T03:22:56;14.40;99.90
10572;DHT22;5334;48.928;12.704;2022-09-09T03:25:23;14.30;99.90
10572;DHT22;5334;48.928;12.704;2022-09-09T03:27:53;14.30;99.90
10572;DHT22;5334;48.928;12.704;2022-09-09T03:30:25;14.30;99.90
10572;DHT22;5334;48.928;12.704;2022-09-09T03:32:51;14.40;99.90
10572;DHT22;5334;48.928;12.704;2022-09-09T03:35:18;14.40;99.90
10572;DHT22;5334;48.928;12.704;2022-09-09T03:37:44;14.40;99.90
10572;DHT22;5334;48.928;12.704;2022-09-09T03:40:10;14.40;99.90
10572;DHT22;5334;48.928;12.704;2022-09-09T03:42:36;14.40;99.90
10572;DHT22;5334;48.928;12.704;2022-09-09T03:45:04;14.40;99.90
10572;DHT22;5334;48.928;12.704;2022-09-09T03:47:30;14.30;99.90
10572;DHT22;5334;48.928;12.704;2022-09-09T03:49:56;14.30;99.90
10572;DHT22;5334;48.928;12.704;2022-09-09T03:52:21;14.30;99.90
10572;DHT22;5334;48.928;12.704;2022-09-09T03:54:50;14.20;99.90
10572;DHT22;5334;48.928;12.704;2022-09-09T03:57:16;14.20;99.90
10572;DHT22;5334;48.928;12.704;2022-09-09T03:59:43;14.20;99.90
10572;DHT22;5334;48.928;12.704;2022-09-09T04:02:08;14.20;99.90
10572;DHT22;5334;48.928;12.704;2022-09-09T04:04:34;14.30;99.90
10572;DHT22;5334;48.928;12.704;2022-09-09T04:07:00;14.30;99.90
10572;DHT22;5334;48.928;12.704;2022-09-09T04:09:27;14.30;99.90
10572;DHT22;5334;48.928;12.704;2022-09-09T04:11:53;14.30;99.90
10572;DHT22;5334;48.928;12.704;2022-09-09T04:14:20;14.30;99.90
10572;DHT22;5334;48.928;12.704;2022-09-09T04:16:46;14.30;99.90
10572;DHT22;5334;48.928;12.704;2022-09-09T04:19:13;14.20;99.90
10572;DHT22;5334;48.928;12.704;2022-09-09T04:21:40;14.30;99.90
10572;DHT22;5334;48.928;12.704;2022-09-09T04:24:07;14.30;99.90
10572;DHT22;5334;48.928;12.704;2022-09-09T04:26:34;14.20;99.90
10572;DHT22;5334;48.928;12.704;2022-09-09T04:29:00;14.20;99.90
10572;DHT22;5334;48.928;12.704;2022-09-09T04:31:25;14.30;99.90
10572;DHT22;5334;48.928;12.704;2022-09-09T04:33:51;14.20;99.90
10572;DHT22;5334;48.928;12.704;2022-09-09T04:36:18;14.20;99.90
10572;DHT22;5334;48.928;12.704;2022-09-09T04:38:45;14.20;99.90
10572;DHT22;5334;48.928;12.704;2022-09-09T04:41:11;14.20;99.90
10572;DHT22;5334;48.928;12.704;2022-09-09T04:43:38;14.20;99.90
10572;DHT22;5334;48.928;12.704;2022-09-09T04:46:04;14.20;99.90
10572;DHT22;5334;48.928;12.704;2022-09-09T04:48:30;14.20;99.90
10572;DHT22;5334;48.928;12.704;2022-09-09T04:51:02;14.20;99.90
10572;DHT22;5334;48.928;12.704;2022-09-09T04:53:30;14.20;99.90
10572;DHT22;5334;48.928;12.704;2022-09-09T04:56:04;14.30;99.90
10572;DHT22;5334;48.928;12.704;2022-09-09T04:58:30;14.30;99.90
10572;DHT22;5334;48.928;12.704;2022-09-09T05:01:03;14.30;99.90
10572;DHT22;5334;48.928;12.704;2022-09-09T05:03:29;14.30;99.90
10572;DHT22;5334;48.928;12.704;2022-09-09T05:06:02;14.30;99.90
10572;DHT22;5334;48.928;12.704;2022-09-09T05:08:29;14.30;99.90
10572;DHT22;5334;48.928;12.704;2022-09-09T05:10:55;14.20;99.90
10572;DHT22;5334;48.928;12.704;2022-09-09T05:13:21;14.30;99.90
10572;DHT22;5334;48.928;12.704;2022-09-09T05:15:52;14.30;99.90
10572;DHT22;5334;48.928;12.704;2022-09-09T05:18:18;14.20;99.90
10572;DHT22;5334;48.928;12.704;2022-09-09T05:20:44;14.20;99.90
10572;DHT22;5334;48.928;12.704;2022-09-09T05:23:10;14.20;99.90
10572;DHT22;5334;48.928;12.704;2022-09-09T05:25:37;14.20;99.90
10572;DHT22;5334;48.928;12.704;2022-09-09T05:28:03;14.20;99.90
10572;DHT22;5334;48.928;12.704;2022-09-09T05:30:28;14.30;99.90
10572;DHT22;5334;48.928;12.704;2022-09-09T05:32:57;14.30;99.90
10572;DHT22;5334;48.928;12.704;2022-09-09T05:35:23;14.30;99.90
10572;DHT22;5334;48.928;12.704;2022-09-09T05:37:49;14.40;99.90
10572;DHT22;5334;48.928;12.704;2022-09-09T05:40:14;14.40;99.90
10572;DHT22;5334;48.928;12.704;2022-09-09T05:42:40;14.40;99.90
10572;DHT22;5334;48.928;12.704;2022-09-09T05:45:08;14.40;99.90
10572;DHT22;5334;48.928;12.704;2022-09-09T05:47:34;14.40;99.90
10572;DHT22;5334;48.928;12.704;2022-09-09T05:50:01;14.40;99.90
10572;DHT22;5334;48.928;12.704;2022-09-09T05:52:27;14.40;99.90
10572;DHT22;5334;48.928;12.704;2022-09-09T05:54:52;14.40;99.90
10572;DHT22;5334;48.928;12.704;2022-09-09T05:57:20;14.40;99.90
10572;DHT22;5334;48.928;12.704;2022-09-09T05:59:46;14.40;99.90
10572;DHT22;5334;48.928;12.704;2022-09-09T06:02:12;14.40;99.90
10572;DHT22;5334;48.928;12.704;2022-09-09T06:04:39;14.50;99.90
10572;DHT22;5334;48.928;12.704;2022-09-09T06:07:05;14.50;99.90
10572;DHT22;5334;48.928;12.704;2022-09-09T06:09:31;14.50;99.90
10572;DHT22;5334;48.928;12.704;2022-09-09T06:11:57;14.50;99.90
10572;DHT22;5334;48.928;12.704;2022-09-09T06:14:24;14.50;99.90
10572;DHT22;5334;48.928;12.704;2022-09-09T06:16:51;14.60;99.90
10572;DHT22;5334;48.928;12.704;2022-09-09T06:19:17;14.60;99.90
10572;DHT22;5334;48.928;12.704;2022-09-09T06:21:43;14.70;99.90
10572;DHT22;5334;48.928;12.704;2022-09-09T06:24:10;14.80;99.90
10572;DHT22;5334;48.928;12.704;2022-09-09T06:26:38;14.80;99.90
10572;DHT22;5334;48.928;12.704;2022-09-09T06:29:07;15.10;99.90
10572;DHT22;5334;48.928;12.704;2022-09-09T06:31:34;15.60;99.90
10572;DHT22;5334;48.928;12.704;2022-09-09T06:34:00;16.10;99.90
10572;DHT22;5334;48.928;12.704;2022-09-09T06:36:30;16.30;99.90
10572;DHT22;5334;48.928;12.704;2022-09-09T06:38:57;16.60;99.90
10572;DHT22;5334;48.928;12.704;2022-09-09T06:41:25;16.70;99.90
10572;DHT22;5334;48.928;12.704;2022-09-09T06:43:52;17.10;99.90
10572;DHT22;5334;48.928;12.704;2022-09-09T06:46:20;17.50;99.90
10572;DHT22;5334;48.928;12.704;2022-09-09T06:48:47;17.80;99.90
10572;DHT22;5334;48.928;12.704;2022-09-09T06:51:17;18.10;99.90
10572;DHT22;5334;48.928;12.704;2022-09-09T06:53:45;17.90;99.90
10572;DHT22;5334;48.928;12.704;2022-09-09T06:58:40;17.10;99.90
10572;DHT22;5334;48.928;12.704;2022-09-09T07:01:14;16.90;99.90
10572;DHT22;5334;48.928;12.704;2022-09-09T07:03:41;16.70;99.90
10572;DHT22;5334;48.928;12.704;2022-09-09T07:06:14;16.50;99.90
10572;DHT22;5334;48.928;12.704;2022-09-09T07:08:43;16.30;99.90
10572;DHT22;5334;48.928;12.704;2022-09-09T07:11:09;16.40;99.90
10572;DHT22;5334;48.928;12.704;2022-09-09T07:13:35;16.50;99.90
10572;DHT22;5334;48.928;12.704;2022-09-09T07:16:05;16.50;99.90
10572;DHT22;5334;48.928;12.704;2022-09-09T07:18:31;16.30;99.90
10572;DHT22;5334;48.928;12.704;2022-09-09T07:20:57;16.40;99.90
10572;DHT22;5334;48.928;12.704;2022-09-09T07:23:23;16.30;99.90
10572;DHT22;5334;48.928;12.704;2022-09-09T07:25:49;16.20;99.90
10572;DHT22;5334;48.928;12.704;2022-09-09T07:28:16;16.10;99.90
10572;DHT22;5334;48.928;12.704;2022-09-09T07:30:42;16.00;99.90
10572;DHT22;5334;48.928;12.704;2022-09-09T07:33:08;15.90;99.90
10572;DHT22;5334;48.928;12.704;2022-09-09T07:35:35;15.90;99.90
10572;DHT22;5334;48.928;12.704;2022-09-09T07:38:02;15.80;99.90
10572;DHT22;5334;48.928;12.704;2022-09-09T07:40:32;15.70;99.90
10572;DHT22;5334;48.928;12.704;2022-09-09T07:42:59;15.80;99.90
10572;DHT22;5334;48.928;12.704;2022-09-09T07:45:26;15.80;99.90
10572;DHT22;5334;48.928;12.704;2022-09-09T07:47:54;16.30;99.90
10572;DHT22;5334;48.928;12.704;2022-09-09T07:50:22;16.40;99.90
10572;DHT22;5334;48.928;12.704;2022-09-09T07:52:50;16.50;99.90
10572;DHT22;5334;48.928;12.704;2022-09-09T07:55:16;16.50;99.90
10572;DHT22;5334;48.928;12.704;2022-09-09T07:57:41;16.50;99.90
10572;DHT22;5334;48.928;12.704;2022-09-09T08:00:07;16.60;99.90
10572;DHT22;5334;48.928;12.704;2022-09-09T08:02:33;16.80;99.90
10572;DHT22;5334;48.928;12.704;2022-09-09T08:04:59;17.10;99.90
10572;DHT22;5334;48.928;12.704;2022-09-09T08:07:24;17.10;99.90
10572;DHT22;5334;48.928;12.704;2022-09-09T08:09:51;17.10;99.90
10572;DHT22;5334;48.928;12.704;2022-09-09T08:12:17;17.30;99.90
10572;DHT22;5334;48.928;12.704;2022-09-09T08:14:43;17.70;99.90
10572;DHT22;5334;48.928;12.704;2022-09-09T08:17:09;18.10;99.90
10572;DHT22;5334;48.928;12.704;2022-09-09T08:19:35;18.10;99.90
10572;DHT22;5334;48.928;12.704;2022-09-09T08:22:02;17.90;99.90
10572;DHT22;5334;48.928;12.704;2022-09-09T08:24:28;17.70;99.90
10572;DHT22;5334;48.928;12.704;2022-09-09T08:26:54;17.60;99.90
10572;DHT22;5334;48.928;12.704;2022-09-09T08:29:20;17.50;99.90
10572;DHT22;5334;48.928;12.704;2022-09-09T08:31:51;17.60;99.90
10572;DHT22;5334;48.928;12.704;2022-09-09T08:34:18;17.80;99.90
10572;DHT22;5334;48.928;12.704;2022-09-09T08:36:47;17.80;99.90
10572;DHT22;5334;48.928;12.704;2022-09-09T08:39:15;17.80;99.90
10572;DHT22;5334;48.928;12.704;2022-09-09T08:42:04;17.80;99.90
10572;DHT22;5334;48.928;12.704;2022-09-09T08:55:47;17.50;99.90
10572;DHT22;5334;48.928;12.704;2022-09-09T08:58:17;17.50;99.90
10572;DHT22;5334;48.928;12.704;2022-09-09T09:11:40;17.30;99.90
10572;DHT22;5334;48.928;12.704;2022-09-09T09:16:52;17.40;99.90
10572;DHT22;5334;48.928;12.704;2022-09-09T09:19:18;17.40;99.90
10572;DHT22;5334;48.928;12.704;2022-09-09T09:22:10;17.40;99.90
10572;DHT22;5334;48.928;12.704;2022-09-09T09:27:33;17.40;99.90
10572;DHT22;5334;48.928;12.704;2022-09-09T09:30:15;17.40;99.90
10572;DHT22;5334;48.928;12.704;2022-09-09T09:35:20;17.40;99.90
10572;DHT22;5334;48.928;12.704;2022-09-09T09:37:47;17.20;99.90
10572;DHT22;5334;48.928;12.704;2022-09-09T09:40:16;17.20;99.90
10572;DHT22;5334;48.928;12.704;2022-09-09T09:43:16;17.10;99.90
10572;DHT22;5334;48.928;12.704;2022-09-09T09:45:44;17.10;99.90
10572;DHT22;5334;48.928;12.704;2022-09-09T09:48:13;17.10;99.90
10572;DHT22;5334;48.928;12.704;2022-09-09T09:51:00;17.20;99.90
10572;DHT22;5334;48.928;12.704;2022-09-09T09:53:29;17.10;99.90
10572;DHT22;5334;48.928;12.704;2022-09-09T09:56:05;17.10;99.90
10572;DHT22;5334;48.928;12.704;2022-09-09T09:58:52;17.20;99.90
10572;DHT22;5334;48.928;12.704;2022-09-09T10:01:25;17.20;99.90
10572;DHT22;5334;48.928;12.704;2022-09-09T10:06:38;17.30;99.90
10572;DHT22;5334;48.928;12.704;2022-09-09T10:17:13;17.10;99.90
10572;DHT22;5334;48.928;12.704;2022-09-09T10:20:27;17.20;99.90
10572;DHT22;5334;48.928;12.704;2022-09-09T10:22:33;17.20;99.90
10572;DHT22;5334;48.928;12.704;2022-09-09T10:25:23;17.20;99.90
10572;DHT22;5334;48.928;12.704;2022-09-09T10:30:38;17.10;99.90
10572;DHT22;5334;48.928;12.704;2022-09-09T10:33:32;17.00;99.90
10572;DHT22;5334;48.928;12.704;2022-09-09T10:41:45;16.80;99.90
10572;DHT22;5334;48.928;12.704;2022-09-09T10:45:14;16.80;99.90
10572;DHT22;5334;48.928;12.704;2022-09-09T10:53:35;16.70;99.90
10572;DHT22;5334;48.928;12.704;2022-09-09T10:56:10;16.70;99.90
10572;DHT22;5334;48.928;12.704;2022-09-09T11:01:26;16.70;99.90
10572;DHT22;5334;48.928;12.704;2022-09-09T11:04:01;16.70;99.90
10572;DHT22;5334;48.928;12.704;2022-09-09T11:06:32;16.60;99.90
10572;DHT22;5334;48.928;12.704;2022-09-09T11:09:02;16.50;99.90
10572;DHT22;5334;48.928;12.704;2022-09-09T11:11:42;16.60;99.90
10572;DHT22;5334;48.928;12.704;2022-09-09T11:14:19;16.70;99.90
10572;DHT22;5334;48.928;12.704;2022-09-09T11:17:01;16.80;99.90
10572;DHT22;5334;48.928;12.704;2022-09-09T11:19:34;16.90;99.90
10572;DHT22;5334;48.928;12.704;2022-09-09T11:27:21;17.20;99.90
10572;DHT22;5334;48.928;12.704;2022-09-09T11:30:02;17.40;99.90
10572;DHT22;5334;48.928;12.704;2022-09-09T11:40:34;17.40;99.90
10572;DHT22;5334;48.928;12.704;2022-09-09T11:43:26;17.40;99.90
10572;DHT22;5334;48.928;12.704;2022-09-09T11:45:54;17.40;99.90
10572;DHT22;5334;48.928;12.704;2022-09-09T11:51:02;17.50;99.90
10572;DHT22;5334;48.928;12.704;2022-09-09T11:53:28;17.60;99.90
10572;DHT22;5334;48.928;12.704;2022-09-09T11:56:12;17.80;99.90
10572;DHT22;5334;48.928;12.704;2022-09-09T11:59:32;18.10;99.90
10572;DHT22;5334;48.928;12.704;2022-09-09T12:02:22;18.30;99.90
10572;DHT22;5334;48.928;12.704;2022-09-09T12:05:07;18.40;99.90
10572;DHT22;5334;48.928;12.704;2022-09-09T12:07:50;18.40;99.90
10572;DHT22;5334;48.928;12.704;2022-09-09T12:12:47;18.30;99.90
10572;DHT22;5334;48.928;12.704;2022-09-09T12:15:23;18.30;99.90
10572;DHT22;5334;48.928;12.704;2022-09-09T12:17:53;18.30;99.90
10572;DHT22;5334;48.928;12.704;2022-09-09T12:20:20;18.10;99.90
10572;DHT22;5334;48.928;12.704;2022-09-09T12:34:06;18.50;99.90
10572;DHT22;5334;48.928;12.704;2022-09-09T12:36:35;18.60;99.90
10572;DHT22;5334;48.928;12.704;2022-09-09T12:39:18;18.70;99.90
10572;DHT22;5334;48.928;12.704;2022-09-09T12:41:52;18.70;99.90
10572;DHT22;5334;48.928;12.704;2022-09-09T12:44:24;19.00;99.90
10572;DHT22;5334;48.928;12.704;2022-09-09T12:46:51;19.30;99.90
10572;DHT22;5334;48.928;12.704;2022-09-09T12:49:29;19.90;99.90
10572;DHT22;5334;48.928;12.704;2022-09-09T12:52:01;20.40;99.90
10572;DHT22;5334;48.928;12.704;2022-09-09T12:54:29;20.20;99.90
10572;DHT22;5334;48.928;12.704;2022-09-09T12:56:55;20.10;99.90
10572;DHT22;5334;48.928;12.704;2022-09-09T12:59:37;20.20;99.90
10572;DHT22;5334;48.928;12.704;2022-09-09T13:02:11;20.70;99.90
10572;DHT22;5334;48.928;12.704;2022-09-09T13:04:37;20.60;99.90
10572;DHT22;5334;48.928;12.704;2022-09-09T13:07:08;20.50;99.90
10572;DHT22;5334;48.928;12.704;2022-09-09T13:09:35;20.70;99.90
10572;DHT22;5334;48.928;12.704;2022-09-09T13:12:02;20.90;99.90
10572;DHT22;5334;48.928;12.704;2022-09-09T13:14:34;21.40;99.90
10572;DHT22;5334;48.928;12.704;2022-09-09T13:17:04;21.90;99.90
10572;DHT22;5334;48.928;12.704;2022-09-09T13:21:58;22.10;99.90
10572;DHT22;5334;48.928;12.704;2022-09-09T13:27:00;22.70;99.90
10572;DHT22;5334;48.928;12.704;2022-09-09T13:29:31;22.90;99.90
10572;DHT22;5334;48.928;12.704;2022-09-09T13:32:15;22.90;99.90
10572;DHT22;5334;48.928;12.704;2022-09-09T13:34:59;22.80;99.90
10572;DHT22;5334;48.928;12.704;2022-09-09T13:37:36;23.00;99.90
10572;DHT22;5334;48.928;12.704;2022-09-09T13:40:04;23.20;99.90
10572;DHT22;5334;48.928;12.704;2022-09-09T13:45:01;23.60;99.90
10572;DHT22;5334;48.928;12.704;2022-09-09T13:47:35;23.60;99.90
10572;DHT22;5334;48.928;12.704;2022-09-09T13:50:27;23.70;99.90
10572;DHT22;5334;48.928;12.704;2022-09-09T13:52:55;23.70;99.90
10572;DHT22;5334;48.928;12.704;2022-09-09T13:55:25;24.00;99.90
10572;DHT22;5334;48.928;12.704;2022-09-09T13:57:59;24.00;99.90
10572;DHT22;5334;48.928;12.704;2022-09-09T14:00:32;23.70;99.90
10572;DHT22;5334;48.928;12.704;2022-09-09T14:02:59;23.50;99.90
10572;DHT22;5334;48.928;12.704;2022-09-09T14:05:29;23.50;99.90
10572;DHT22;5334;48.928;12.704;2022-09-09T14:07:55;23.50;99.90
10572;DHT22;5334;48.928;12.704;2022-09-09T14:10:21;23.60;99.90
10572;DHT22;5334;48.928;12.704;2022-09-09T14:12:47;23.70;99.90
10572;DHT22;5334;48.928;12.704;2022-09-09T14:15:13;23.70;99.90
10572;DHT22;5334;48.928;12.704;2022-09-09T14:17:39;23.60;99.90
10572;DHT22;5334;48.928;12.704;2022-09-09T14:20:06;23.60;99.90
10572;DHT22;5334;48.928;12.704;2022-09-09T14:22:35;23.70;99.90
10572;DHT22;5334;48.928;12.704;2022-09-09T14:25:01;23.80;99.90
10572;DHT22;5334;48.928;12.704;2022-09-09T14:27:26;24.20;99.90
10572;DHT22;5334;48.928;12.704;2022-09-09T14:29:52;24.20;99.90
10572;DHT22;5334;48.928;12.704;2022-09-09T14:32:18;23.70;99.90
10572;DHT22;5334;48.928;12.704;2022-09-09T14:34:44;23.80;99.90
10572;DHT22;5334;48.928;12.704;2022-09-09T14:37:09;23.70;99.90
10572;DHT22;5334;48.928;12.704;2022-09-09T14:39:35;23.10;99.90
10572;DHT22;5334;48.928;12.704;2022-09-09T14:42:01;22.80;99.90
10572;DHT22;5334;48.928;12.704;2022-09-09T14:44:28;22.90;99.90
10572;DHT22;5334;48.928;12.704;2022-09-09T14:46:53;23.00;99.90
10572;DHT22;5334;48.928;12.704;2022-09-09T14:49:19;23.20;99.90
10572;DHT22;5334;48.928;12.704;2022-09-09T14:51:45;23.00;99.90
10572;DHT22;5334;48.928;12.704;2022-09-09T14:54:11;22.90;99.90
10572;DHT22;5334;48.928;12.704;2022-09-09T14:56:37;23.00;99.90
10572;DHT22;5334;48.928;12.704;2022-09-09T14:59:04;22.40;99.90
10572;DHT22;5334;48.928;12.704;2022-09-09T15:01:31;22.30;99.90
10572;DHT22;5334;48.928;12.704;2022-09-09T15:03:59;22.80;99.90
10572;DHT22;5334;48.928;12.704;2022-09-09T15:06:28;23.60;99.90
10572;DHT22;5334;48.928;12.704;2022-09-09T15:08:55;23.90;99.90
10572;DHT22;5334;48.928;12.704;2022-09-09T15:11:23;24.00;99.90
10572;DHT22;5334;48.928;12.704;2022-09-09T15:13:52;23.80;99.90
10572;DHT22;5334;48.928;12.704;2022-09-09T15:16:23;23.10;99.90
10572;DHT22;5334;48.928;12.704;2022-09-09T15:18:55;22.80;99.90
10572;DHT22;5334;48.928;12.704;2022-09-09T15:21:23;22.70;99.90
10572;DHT22;5334;48.928;12.704;2022-09-09T15:23:49;22.40;99.90
10572;DHT22;5334;48.928;12.704;2022-09-09T15:26:15;22.50;99.90
10572;DHT22;5334;48.928;12.704;2022-09-09T15:28:43;22.10;99.90
10572;DHT22;5334;48.928;12.704;2022-09-09T15:31:15;21.60;99.90
10572;DHT22;5334;48.928;12.704;2022-09-09T15:33:47;21.30;99.90
10572;DHT22;5334;48.928;12.704;2022-09-09T15:36:25;21.10;99.90
10572;DHT22;5334;48.928;12.704;2022-09-09T15:38:52;20.80;99.90
10572;DHT22;5334;48.928;12.704;2022-09-09T15:41:19;20.70;99.90
10572;DHT22;5334;48.928;12.704;2022-09-09T15:43:47;20.70;99.90
10572;DHT22;5334;48.928;12.704;2022-09-09T15:48:43;20.80;99.90
10572;DHT22;5334;48.928;12.704;2022-09-09T15:51:10;20.70;99.90
10572;DHT22;5334;48.928;12.704;2022-09-09T15:53:36;20.70;99.90
10572;DHT22;5334;48.928;12.704;2022-09-09T15:56:07;20.50;99.90
10572;DHT22;5334;48.928;12.704;2022-09-09T15:58:34;20.40;99.90
10572;DHT22;5334;48.928;12.704;2022-09-09T16:01:02;20.20;99.90
10572;DHT22;5334;48.928;12.704;2022-09-09T16:03:33;20.10;99.90
10572;DHT22;5334;48.928;12.704;2022-09-09T16:05:58;20.00;99.90
10572;DHT22;5334;48.928;12.704;2022-09-09T16:08:30;19.80;99.90
10572;DHT22;5334;48.928;12.704;2022-09-09T16:10:56;19.70;99.90
10572;DHT22;5334;48.928;12.704;2022-09-09T16:13:28;19.60;99.90
10572;DHT22;5334;48.928;12.704;2022-09-09T16:15:58;19.50;99.90
10572;DHT22;5334;48.928;12.704;2022-09-09T16:18:24;19.50;99.90
10572;DHT22;5334;48.928;12.704;2022-09-09T16:20:55;19.40;99.90
10572;DHT22;5334;48.928;12.704;2022-09-09T16:23:21;19.40;99.90
10572;DHT22;5334;48.928;12.704;2022-09-09T16:25:54;19.30;99.90
10572;DHT22;5334;48.928;12.704;2022-09-09T16:28:20;19.20;99.90
10572;DHT22;5334;48.928;12.704;2022-09-09T16:30:46;19.10;99.90
10572;DHT22;5334;48.928;12.704;2022-09-09T16:33:11;19.10;99.90
10572;DHT22;5334;48.928;12.704;2022-09-09T16:35:40;19.00;99.90
10572;DHT22;5334;48.928;12.704;2022-09-09T16:38:06;19.00;99.90
10572;DHT22;5334;48.928;12.704;2022-09-09T16:40:34;18.90;99.90
10572;DHT22;5334;48.928;12.704;2022-09-09T16:45:26;18.80;99.90
10572;DHT22;5334;48.928;12.704;2022-09-09T16:47:52;18.70;99.90
10572;DHT22;5334;48.928;12.704;2022-09-09T16:50:19;18.70;99.90
10572;DHT22;5334;48.928;12.704;2022-09-09T16:52:45;18.70;99.90
10572;DHT22;5334;48.928;12.704;2022-09-09T16:55:10;18.70;99.90
10572;DHT22;5334;48.928;12.704;2022-09-09T16:57:36;18.70;99.90
10572;DHT22;5334;48.928;12.704;2022-09-09T17:00:03;18.60;99.90
10572;DHT22;5334;48.928;12.704;2022-09-09T17:02:31;18.60;99.90
10572;DHT22;5334;48.928;12.704;2022-09-09T17:04:57;18.50;99.90
10572;DHT22;5334;48.928;12.704;2022-09-09T17:07:22;18.50;99.90
10572;DHT22;5334;48.928;12.704;2022-09-09T17:09:48;18.40;99.90
10572;DHT22;5334;48.928;12.704;2022-09-09T17:12:14;18.40;99.90
10572;DHT22;5334;48.928;12.704;2022-09-09T17:14:41;18.40;99.90
10572;DHT22;5334;48.928;12.704;2022-09-09T17:17:08;18.40;99.90
10572;DHT22;5334;48.928;12.704;2022-09-09T17:19:34;18.30;99.90
10572;DHT22;5334;48.928;12.704;2022-09-09T17:21:59;18.30;99.90
10572;DHT22;5334;48.928;12.704;2022-09-09T17:24:28;18.30;99.90
10572;DHT22;5334;48.928;12.704;2022-09-09T17:26:54;18.30;99.90
10572;DHT22;5334;48.928;12.704;2022-09-09T17:29:21;18.30;99.90
10572;DHT22;5334;48.928;12.704;2022-09-09T17:31:47;18.20;99.90
10572;DHT22;5334;48.928;12.704;2022-09-09T17:34:12;18.10;99.90
10572;DHT22;5334;48.928;12.704;2022-09-09T17:36:38;18.00;99.90
10572;DHT22;5334;48.928;12.704;2022-09-09T17:39:05;18.00;99.90
10572;DHT22;5334;48.928;12.704;2022-09-09T17:41:36;18.00;99.90
10572;DHT22;5334;48.928;12.704;2022-09-09T17:44:03;17.90;99.90
10572;DHT22;5334;48.928;12.704;2022-09-09T17:46:31;17.90;99.90
10572;DHT22;5334;48.928;12.704;2022-09-09T17:49:02;17.90;99.90
10572;DHT22;5334;48.928;12.704;2022-09-09T17:51:29;17.90;99.90
10572;DHT22;5334;48.928;12.704;2022-09-09T17:53:58;17.80;99.90
10572;DHT22;5334;48.928;12.704;2022-09-09T17:56:25;17.80;99.90
10572;DHT22;5334;48.928;12.704;2022-09-09T17:58:52;17.70;99.90
10572;DHT22;5334;48.928;12.704;2022-09-09T18:01:27;17.60;99.90
10572;DHT22;5334;48.928;12.704;2022-09-09T18:03:54;17.60;99.90
10572;DHT22;5334;48.928;12.704;2022-09-09T18:06:23;17.60;99.90
10572;DHT22;5334;48.928;12.704;2022-09-09T18:08:57;17.60;99.90
10572;DHT22;5334;48.928;12.704;2022-09-09T18:11:26;17.50;99.90
10572;DHT22;5334;48.928;12.704;2022-09-09T18:13:54;17.50;99.90
10572;DHT22;5334;48.928;12.704;2022-09-09T18:16:22;17.50;99.90
10572;DHT22;5334;48.928;12.704;2022-09-09T18:18:49;17.50;99.90
10572;DHT22;5334;48.928;12.704;2022-09-09T18:21:16;17.40;99.90
10572;DHT22;5334;48.928;12.704;2022-09-09T18:23:44;17.40;99.90
10572;DHT22;5334;48.928;12.704;2022-09-09T18:26:22;17.40;99.90
10572;DHT22;5334;48.928;12.704;2022-09-09T18:29:13;17.40;99.90